createdAt,value
2023-05-10T00:01:43.738Z,12.71
2023-05-10T00:04:11.681Z,12.70
2023-05-10T00:06:40.039Z,12.52
2023-05-10T00:09:10.119Z,12.67
2023-05-10T00:11:38.044Z,12.55
2023-05-10T00:14:08.480Z,12.33
2023-05-10T00:16:36.474Z,12.40
2023-05-10T00:19:04.578Z,12.42
2023-05-10T00:21:33.222Z,12.46
2023-05-10T00:24:01.180Z,12.33
2023-05-10T00:26:30.478Z,12.33
2023-05-10T00:28:59.509Z,12.36
2023-05-10T00:31:27.528Z,12.16
2023-05-10T00:33:55.552Z,12.11
2023-05-10T00:36:23.428Z,12.30
2023-05-10T00:38:51.383Z,12.03
2023-05-10T00:41:19.530Z,11.82
2023-05-10T00:43:50.783Z,11.94
2023-05-10T00:46:18.820Z,11.89
2023-05-10T00:48:47.082Z,11.97
2023-05-10T00:51:15.716Z,11.78
2023-05-10T00:53:44.466Z,11.54
2023-05-10T00:56:12.497Z,11.43
2023-05-10T00:58:40.632Z,11.39
2023-05-10T01:01:11.007Z,11.22
2023-05-10T01:03:39.510Z,11.39
2023-05-10T01:06:08.075Z,11.28
2023-05-10T01:08:36.216Z,11.18
2023-05-10T01:11:04.277Z,11.24
2023-05-10T01:13:35.240Z,11.12
2023-05-10T01:16:04.238Z,11.09
2023-05-10T01:18:36.583Z,11.17
2023-05-10T01:21:15.487Z,11.23
2023-05-10T01:24:06.988Z,10.96
2023-05-10T01:27:13.504Z,10.67
2023-05-10T01:30:17.063Z,10.66
2023-05-10T01:32:51.365Z,10.63
2023-05-10T01:35:25.076Z,10.78
2023-05-10T01:38:06.481Z,10.78
2023-05-10T01:40:39.628Z,10.70
2023-05-10T01:43:21.720Z,10.68
2023-05-10T01:46:12.034Z,10.63
2023-05-10T01:48:49.397Z,10.63
2023-05-10T01:51:21.782Z,10.58
2023-05-10T01:53:50.736Z,10.52
2023-05-10T01:56:22.267Z,10.73
2023-05-10T01:58:51.907Z,10.60
2023-05-10T02:01:21.484Z,10.67
2023-05-10T02:03:52.787Z,10.67
2023-05-10T02:06:22.780Z,10.56
2023-05-10T02:08:53.516Z,10.53
2023-05-10T02:11:22.985Z,10.63
2023-05-10T02:13:53.912Z,10.48
2023-05-10T02:16:31.596Z,10.66
2023-05-10T02:19:03.359Z,10.47
2023-05-10T02:21:33.728Z,10.63
2023-05-10T02:24:05.551Z,10.48
2023-05-10T02:26:34.879Z,10.39
2023-05-10T02:29:05.117Z,10.47
2023-05-10T02:31:34.982Z,10.24
2023-05-10T02:34:06.422Z,10.40
2023-05-10T02:36:35.228Z,10.44
2023-05-10T02:39:04.362Z,10.33
2023-05-10T02:41:34.748Z,10.43
2023-05-10T02:44:04.743Z,10.35
2023-05-10T02:46:32.981Z,10.22
2023-05-10T02:49:01.112Z,10.24
2023-05-10T02:51:34.530Z,10.04
2023-05-10T02:54:11.390Z,9.86
2023-05-10T02:56:44.478Z,10.13
2023-05-10T02:59:12.411Z,10.09
2023-05-10T03:01:40.637Z,9.81
2023-05-10T03:04:08.713Z,9.86
2023-05-10T03:06:38.798Z,9.92
2023-05-10T03:09:08.762Z,10.05
2023-05-10T03:11:50.393Z,10.09
2023-05-10T03:14:30.863Z,9.97
2023-05-10T03:17:06.131Z,9.95
2023-05-10T03:19:42.009Z,9.84
2023-05-10T03:22:13.087Z,9.66
2023-05-10T03:24:43.176Z,9.87
2023-05-10T03:27:12.484Z,10.02
2023-05-10T03:29:41.593Z,9.90
2023-05-10T03:32:09.686Z,9.94
2023-05-10T03:34:43.717Z,9.71
2023-05-10T03:37:13.919Z,9.66
2023-05-10T03:39:42.571Z,9.70
2023-05-10T03:42:12.970Z,9.71
2023-05-10T03:44:41.353Z,9.77
2023-05-10T03:47:10.522Z,9.72
2023-05-10T03:49:38.546Z,9.70
2023-05-10T03:52:07.511Z,9.67
2023-05-10T03:54:38.241Z,9.87
2023-05-10T03:57:06.862Z,9.89
2023-05-10T03:59:34.820Z,9.87
2023-05-10T04:02:02.864Z,9.74
2023-05-10T04:04:31.535Z,9.94
2023-05-10T04:07:00.135Z,9.92
2023-05-10T04:09:28.030Z,9.91
2023-05-10T04:11:57.266Z,10.02
2023-05-10T04:14:25.558Z,10.00
2023-05-10T04:16:53.617Z,9.98
2023-05-10T04:19:21.628Z,9.94
2023-05-10T04:21:49.553Z,10.06
2023-05-10T04:24:17.406Z,10.17
2023-05-10T04:26:45.390Z,10.23
2023-05-10T04:29:14.646Z,10.28
2023-05-10T04:31:42.648Z,10.31
2023-05-10T04:34:10.573Z,10.39
2023-05-10T04:36:38.453Z,10.38
2023-05-10T04:39:06.604Z,10.49
2023-05-10T04:41:34.518Z,10.57
2023-05-10T04:44:02.546Z,10.57
2023-05-10T04:46:31.997Z,10.49
2023-05-10T04:49:00.046Z,10.73
2023-05-10T04:51:27.927Z,10.80
2023-05-10T04:54:05.424Z,10.82
2023-05-10T04:56:34.829Z,10.88
2023-05-10T04:59:02.766Z,10.92
2023-05-10T05:01:32.308Z,10.97
2023-05-10T05:04:00.725Z,11.04
2023-05-10T05:06:28.744Z,11.11
2023-05-10T05:08:56.710Z,11.24
2023-05-10T05:11:24.652Z,11.25
2023-05-10T05:13:52.554Z,11.42
2023-05-10T05:16:22.546Z,11.46
2023-05-10T05:18:52.005Z,11.51
2023-05-10T05:21:21.330Z,11.57
2023-05-10T05:23:49.298Z,11.72
2023-05-10T05:26:17.280Z,11.79
2023-05-10T05:28:45.257Z,11.84
2023-05-10T05:31:13.229Z,12.04
2023-05-10T05:33:41.323Z,12.05
2023-05-10T05:36:11.675Z,12.09
2023-05-10T05:38:39.581Z,12.17
2023-05-10T05:41:07.551Z,12.26
2023-05-10T05:43:38.048Z,12.35
2023-05-10T05:46:06.734Z,12.39
2023-05-10T05:48:34.781Z,12.48
2023-05-10T05:51:02.844Z,12.56
2023-05-10T05:53:33.344Z,12.62
2023-05-10T05:56:01.244Z,12.84
2023-05-10T05:58:29.670Z,13.06
2023-05-10T06:00:58.249Z,13.04
2023-05-10T06:03:26.455Z,13.10
2023-05-10T06:05:54.619Z,13.27
2023-05-10T06:08:22.548Z,13.39
2023-05-10T06:10:51.942Z,13.52
2023-05-10T06:13:19.964Z,13.57
2023-05-10T06:15:47.873Z,13.63
2023-05-10T06:18:15.838Z,13.73
2023-05-10T06:20:44.060Z,13.88
2023-05-10T06:23:12.097Z,13.98
2023-05-10T06:25:40.106Z,14.02
2023-05-10T06:28:09.484Z,14.13
2023-05-10T06:30:39.009Z,14.22
2023-05-10T06:33:07.022Z,14.24
2023-05-10T06:35:35.050Z,14.33
2023-05-10T06:38:03.017Z,14.40
2023-05-10T06:40:30.940Z,14.46
2023-05-10T06:42:58.851Z,14.50
2023-05-10T06:45:28.242Z,14.55
2023-05-10T06:47:56.325Z,14.69
2023-05-10T06:50:24.234Z,14.66
2023-05-10T06:52:53.187Z,14.76
2023-05-10T06:55:21.374Z,14.76
2023-05-10T06:57:49.515Z,14.79
2023-05-10T07:00:18.745Z,14.85
2023-05-10T07:02:49.472Z,14.91
2023-05-10T07:05:17.760Z,14.92
2023-05-10T07:07:45.945Z,14.94
2023-05-10T07:10:14.288Z,15.04
2023-05-10T07:12:42.472Z,15.09
2023-05-10T07:15:11.289Z,15.14
2023-05-10T07:17:39.286Z,15.19
2023-05-10T07:20:10.759Z,15.21
2023-05-10T07:22:38.676Z,15.28
2023-05-10T07:25:07.550Z,15.20
2023-05-10T07:27:35.551Z,15.30
2023-05-10T07:30:03.543Z,15.43
2023-05-10T07:32:32.747Z,15.48
2023-05-10T07:35:01.095Z,15.55
2023-05-10T07:37:31.319Z,15.58
2023-05-10T07:39:59.239Z,15.62
2023-05-10T07:42:27.160Z,15.67
2023-05-10T07:44:55.186Z,15.80
2023-05-10T07:47:23.183Z,15.82
2023-05-10T07:49:51.257Z,15.91
2023-05-10T07:52:21.212Z,16.01
2023-05-10T07:54:51.844Z,15.99
2023-05-10T07:57:20.037Z,16.12
2023-05-10T07:59:48.457Z,16.19
2023-05-10T08:02:16.535Z,16.19
2023-05-10T08:04:44.483Z,16.36
2023-05-10T08:07:12.733Z,16.33
2023-05-10T08:09:40.705Z,16.39
2023-05-10T08:12:10.031Z,16.51
2023-05-10T08:14:38.651Z,16.66
2023-05-10T08:17:09.146Z,16.63
2023-05-10T08:19:37.314Z,16.69
2023-05-10T08:22:06.557Z,16.74
2023-05-10T08:24:35.713Z,16.76
2023-05-10T08:27:04.008Z,16.80
2023-05-10T08:32:06.766Z,16.88
2023-05-10T08:34:34.830Z,17.02
2023-05-10T08:37:02.787Z,17.12
2023-05-10T08:39:32.342Z,17.14
2023-05-10T08:42:04.410Z,17.19
2023-05-10T08:44:34.689Z,17.31
2023-05-10T08:47:06.186Z,17.30
2023-05-10T08:49:35.663Z,17.39
2023-05-10T08:52:06.318Z,17.43
2023-05-10T08:54:35.075Z,17.53
2023-05-10T08:57:03.287Z,17.60
2023-05-10T08:59:32.944Z,17.72
2023-05-10T09:02:01.754Z,17.71
2023-05-10T09:04:31.495Z,17.78
2023-05-10T09:06:59.566Z,17.97
2023-05-10T09:09:27.856Z,18.01
2023-05-10T09:11:56.470Z,18.04
2023-05-10T09:14:26.898Z,18.11
2023-05-10T09:16:56.410Z,18.19
2023-05-10T09:19:24.453Z,18.28
2023-05-10T09:21:52.455Z,18.37
2023-05-10T09:24:20.387Z,18.39
2023-05-10T09:26:50.471Z,18.48
2023-05-10T09:29:18.624Z,18.53
2023-05-10T09:31:48.764Z,18.62
2023-05-10T09:34:22.707Z,18.64
2023-05-10T09:36:55.695Z,18.66
2023-05-10T09:39:32.730Z,18.90
2023-05-10T09:42:01.775Z,19.11
2023-05-10T09:44:29.824Z,19.14
2023-05-10T09:46:58.018Z,19.20
2023-05-10T09:49:27.392Z,19.19
2023-05-10T09:52:05.913Z,19.15
2023-05-10T09:54:34.869Z,19.19
2023-05-10T09:57:03.548Z,19.31
2023-05-10T09:59:32.111Z,19.47
2023-05-10T10:02:02.122Z,19.58
2023-05-10T10:04:32.677Z,19.81
2023-05-10T10:07:01.915Z,19.87
2023-05-10T10:09:32.450Z,19.75
2023-05-10T10:12:01.454Z,20.15
2023-05-10T10:14:29.767Z,20.68
2023-05-10T10:17:07.606Z,20.88
2023-05-10T10:19:38.464Z,21.25
2023-05-10T10:22:06.978Z,21.41
2023-05-10T10:24:35.198Z,21.56
2023-05-10T10:27:11.202Z,21.94
2023-05-10T10:29:46.773Z,22.09
2023-05-10T10:32:26.711Z,22.27
2023-05-10T10:34:57.074Z,22.52
2023-05-10T10:37:25.041Z,22.31
2023-05-10T10:39:53.025Z,22.61
2023-05-10T10:42:47.928Z,23.12
2023-05-10T10:45:16.225Z,23.02
2023-05-10T10:47:44.866Z,22.94
2023-05-10T10:50:14.581Z,23.04
2023-05-10T10:52:42.916Z,23.01
2023-05-10T10:55:12.645Z,23.04
2023-05-10T10:57:49.411Z,23.25
2023-05-10T11:00:23.974Z,23.58
2023-05-10T11:02:53.697Z,22.68
2023-05-10T11:05:47.199Z,23.75
2023-05-10T11:08:20.684Z,24.91
2023-05-10T11:11:04.376Z,25.83
2023-05-10T11:13:34.195Z,26.66
2023-05-10T11:16:13.335Z,26.91
2023-05-10T11:18:41.903Z,27.80
2023-05-10T11:21:12.483Z,28.41
2023-05-10T11:23:51.806Z,28.83
2023-05-10T11:26:24.261Z,28.61
2023-05-10T11:28:52.537Z,29.68
2023-05-10T11:31:21.730Z,29.75
2023-05-10T11:33:51.503Z,29.79
2023-05-10T11:36:22.699Z,28.17
2023-05-10T11:38:51.357Z,29.79
2023-05-10T11:41:22.739Z,30.41
2023-05-10T11:43:52.994Z,29.66
2023-05-10T11:46:22.571Z,30.37
2023-05-10T11:48:52.557Z,29.84
2023-05-10T11:51:24.281Z,31.29
2023-05-10T11:53:53.261Z,31.75
2023-05-10T11:56:21.867Z,29.61
2023-05-10T11:58:56.390Z,30.84
2023-05-10T12:01:24.869Z,30.53
2023-05-10T12:03:54.813Z,30.72
2023-05-10T12:06:28.299Z,30.84
2023-05-10T12:08:56.279Z,31.98
2023-05-10T12:11:27.388Z,30.88
2023-05-10T12:13:56.105Z,30.89
2023-05-10T12:16:25.213Z,29.61
2023-05-10T12:18:57.417Z,30.76
2023-05-10T12:21:27.728Z,30.12
2023-05-10T12:23:57.376Z,30.03
2023-05-10T12:26:27.350Z,27.70
2023-05-10T12:28:55.572Z,27.39
2023-05-10T12:31:23.584Z,27.61
2023-05-10T12:33:51.497Z,27.45
2023-05-10T12:36:28.517Z,26.81
2023-05-10T12:39:05.831Z,26.51
2023-05-10T12:41:33.819Z,27.12
2023-05-10T12:44:04.399Z,27.51
2023-05-10T12:46:32.718Z,27.51
2023-05-10T12:49:08.631Z,27.72
2023-05-10T12:51:38.667Z,27.43
2023-05-10T12:54:06.757Z,28.41
2023-05-10T12:56:34.719Z,29.50
2023-05-10T12:59:02.614Z,31.18
2023-05-10T13:01:30.610Z,31.94
2023-05-10T13:03:58.561Z,31.16
2023-05-10T13:06:26.505Z,31.83
2023-05-10T13:08:55.805Z,30.67
2023-05-10T13:11:23.818Z,31.06
2023-05-10T13:13:51.744Z,31.84
2023-05-10T13:16:19.809Z,31.10
2023-05-10T13:18:50.114Z,30.30
2023-05-10T13:21:18.110Z,29.09
2023-05-10T13:23:48.562Z,29.01
2023-05-10T13:26:17.907Z,28.13
2023-05-10T13:28:46.891Z,27.65
2023-05-10T13:31:14.844Z,27.50
2023-05-10T13:33:43.187Z,27.29
2023-05-10T13:36:12.296Z,27.33
2023-05-10T13:38:40.237Z,27.82
2023-05-10T13:41:08.278Z,27.96
2023-05-10T13:43:38.046Z,27.36
2023-05-10T13:46:06.205Z,26.36
2023-05-10T13:48:34.860Z,26.70
2023-05-10T13:51:04.364Z,27.26
2023-05-10T13:53:32.313Z,26.83
2023-05-10T13:56:00.213Z,27.44
2023-05-10T13:58:28.135Z,27.41
2023-05-10T14:00:58.142Z,27.34
2023-05-10T14:03:26.429Z,27.07
2023-05-10T14:05:54.382Z,27.38
2023-05-10T14:08:22.595Z,27.36
2023-05-10T14:10:51.639Z,26.82
2023-05-10T14:13:19.565Z,27.47
2023-05-10T14:15:47.498Z,27.54
2023-05-10T14:18:16.858Z,26.92
2023-05-10T14:20:44.842Z,26.95
2023-05-10T14:23:13.382Z,27.02
2023-05-10T14:25:42.205Z,27.13
2023-05-10T14:28:10.265Z,26.53
2023-05-10T14:30:38.351Z,26.84
2023-05-10T14:33:08.278Z,27.27
2023-05-10T14:35:38.610Z,27.67
2023-05-10T14:38:06.639Z,27.61
2023-05-10T14:40:34.648Z,27.75
2023-05-10T14:43:02.678Z,27.38
2023-05-10T14:45:30.848Z,27.18
2023-05-10T14:48:00.125Z,27.13
2023-05-10T14:50:36.537Z,26.95
2023-05-10T14:53:06.614Z,27.12
2023-05-10T14:55:35.663Z,26.80
2023-05-10T14:58:04.339Z,26.96
2023-05-10T15:00:33.616Z,27.47
2023-05-10T15:03:02.344Z,27.40
2023-05-10T15:05:30.908Z,27.25
2023-05-10T15:07:59.522Z,26.73
2023-05-10T15:10:28.835Z,27.27
2023-05-10T15:12:57.050Z,26.68
2023-05-10T15:15:25.119Z,27.16
2023-05-10T15:17:53.124Z,27.27
2023-05-10T15:20:21.132Z,27.28
2023-05-10T15:22:49.077Z,27.39
2023-05-10T15:25:17.385Z,26.85
2023-05-10T15:27:47.571Z,27.15
2023-05-10T15:30:15.973Z,27.27
2023-05-10T15:32:44.089Z,26.66
2023-05-10T15:35:12.631Z,26.05
2023-05-10T15:37:40.553Z,26.24
2023-05-10T15:40:09.232Z,25.88
2023-05-10T15:42:37.150Z,26.03
2023-05-10T15:45:10.035Z,26.09
2023-05-10T15:47:40.115Z,25.95
2023-05-10T15:50:08.536Z,26.27
2023-05-10T15:52:37.063Z,25.70
2023-05-10T15:55:12.469Z,25.87
2023-05-10T15:57:41.603Z,25.70
2023-05-10T16:00:13.193Z,25.94
2023-05-10T16:02:41.405Z,26.41
2023-05-10T16:05:10.817Z,26.11
2023-05-10T16:07:42.053Z,26.37
2023-05-10T16:10:11.748Z,26.36
2023-05-10T16:12:40.112Z,26.03
2023-05-10T16:15:09.882Z,26.34
2023-05-10T16:17:39.320Z,26.42
2023-05-10T16:20:08.679Z,26.43
2023-05-10T16:22:36.781Z,25.62
2023-05-10T16:25:05.259Z,25.92
2023-05-10T16:27:33.461Z,25.45
2023-05-10T16:30:01.657Z,25.39
2023-05-10T16:32:29.805Z,24.84
2023-05-10T16:35:00.126Z,24.91
2023-05-10T16:37:28.639Z,24.55
2023-05-10T16:39:56.571Z,24.50
2023-05-10T16:42:25.980Z,24.81
2023-05-10T16:44:55.395Z,24.37
2023-05-10T16:47:26.475Z,24.34
2023-05-10T16:49:54.410Z,23.41
2023-05-10T16:52:23.814Z,23.28
2023-05-10T16:54:51.739Z,22.71
2023-05-10T16:57:19.711Z,22.52
2023-05-10T16:59:47.986Z,22.58
2023-05-10T17:02:16.845Z,22.28
2023-05-10T17:04:44.769Z,22.48
2023-05-10T17:07:13.169Z,22.28
2023-05-10T17:09:43.301Z,22.27
2023-05-10T17:12:12.471Z,21.95
2023-05-10T17:14:40.977Z,21.88
2023-05-10T17:17:10.670Z,21.89
2023-05-10T17:19:38.565Z,21.74
2023-05-10T17:22:06.591Z,21.54
2023-05-10T17:24:34.504Z,21.84
2023-05-10T17:27:04.358Z,21.82
2023-05-10T17:29:32.509Z,21.64
2023-05-10T17:32:00.763Z,21.66
2023-05-10T17:34:28.938Z,21.45
2023-05-10T17:36:57.379Z,21.16
2023-05-10T17:39:25.340Z,21.11
2023-05-10T17:41:53.258Z,21.04
2023-05-10T17:44:22.904Z,20.90
2023-05-10T17:46:50.840Z,20.54
2023-05-10T17:49:18.843Z,20.58
2023-05-10T17:51:48.018Z,20.62
2023-05-10T17:54:16.218Z,20.49
2023-05-10T17:56:44.154Z,20.31
2023-05-10T17:59:12.145Z,20.41
2023-05-10T18:01:41.668Z,20.56
2023-05-10T18:04:09.694Z,20.35
2023-05-10T18:06:38.125Z,20.28
2023-05-10T18:09:07.262Z,20.07
2023-05-10T18:11:36.774Z,20.04
2023-05-10T18:14:04.947Z,20.07
2023-05-10T18:16:32.904Z,20.02
2023-05-10T18:19:02.351Z,19.82
2023-05-10T18:21:31.256Z,19.63
2023-05-10T18:23:59.219Z,19.69
2023-05-10T18:26:27.731Z,19.75
2023-05-10T18:28:55.673Z,19.55
2023-05-10T18:31:23.982Z,19.51
2023-05-10T18:33:52.246Z,19.40
2023-05-10T18:36:23.637Z,19.37
2023-05-10T18:38:51.589Z,19.43
2023-05-10T18:41:19.608Z,19.32
2023-05-10T18:43:47.570Z,19.29
2023-05-10T18:46:16.022Z,19.27
2023-05-10T18:48:44.058Z,19.27
2023-05-10T18:51:12.470Z,19.31
2023-05-10T18:53:41.892Z,19.16
2023-05-10T18:56:10.025Z,19.18
2023-05-10T18:58:38.362Z,19.00
2023-05-10T19:01:06.446Z,19.11
2023-05-10T19:03:34.360Z,18.96
2023-05-10T19:06:02.330Z,18.99
2023-05-10T19:08:30.383Z,18.91
2023-05-10T19:10:59.766Z,18.72
2023-05-10T19:13:30.212Z,18.58
2023-05-10T19:16:05.909Z,18.55
2023-05-10T19:18:34.386Z,18.23
2023-05-10T19:21:04.513Z,18.28
2023-05-10T19:23:33.104Z,18.29
2023-05-10T19:26:02.700Z,18.20
2023-05-10T19:28:30.681Z,18.32
2023-05-10T19:30:58.846Z,18.16
2023-05-10T19:33:26.901Z,18.19
2023-05-10T19:35:56.304Z,17.87
2023-05-10T19:38:25.109Z,17.85
2023-05-10T19:40:57.918Z,17.72
2023-05-10T19:43:28.274Z,17.69
2023-05-10T19:45:56.708Z,17.78
2023-05-10T19:48:24.742Z,17.63
2023-05-10T19:50:52.852Z,17.58
2023-05-10T19:53:21.526Z,17.77
2023-05-10T19:55:49.602Z,17.60
2023-05-10T19:58:17.852Z,17.43
2023-05-10T20:00:47.260Z,17.40
2023-05-10T20:03:15.311Z,17.32
2023-05-10T20:05:43.294Z,17.33
2023-05-10T20:08:11.496Z,17.29
2023-05-10T20:10:39.481Z,17.21
2023-05-10T20:13:07.752Z,17.25
2023-05-10T20:15:35.766Z,17.20
2023-05-10T20:18:05.473Z,17.20
2023-05-10T20:20:33.459Z,17.09
2023-05-10T20:23:01.494Z,17.09
2023-05-10T20:25:29.671Z,17.09
2023-05-10T20:27:57.757Z,16.96
2023-05-10T20:30:25.736Z,17.00
2023-05-10T20:32:53.812Z,17.12
2023-05-10T20:35:25.648Z,17.00
2023-05-10T20:37:53.912Z,16.83
2023-05-10T20:40:22.031Z,16.80
2023-05-10T20:42:51.983Z,17.10
2023-05-10T20:45:20.003Z,16.87
2023-05-10T20:47:48.104Z,16.93
2023-05-10T20:50:16.305Z,16.80
2023-05-10T20:52:45.731Z,16.77
2023-05-10T20:55:13.617Z,16.66
2023-05-10T20:57:41.613Z,16.40
2023-05-10T21:00:10.714Z,16.29
2023-05-10T21:02:38.693Z,16.18
2023-05-10T21:05:07.489Z,16.13
2023-05-10T21:07:35.391Z,16.06
2023-05-10T21:10:05.097Z,16.00
2023-05-10T21:12:33.179Z,15.98
2023-05-10T21:15:01.201Z,15.98
2023-05-10T21:17:35.909Z,16.03
2023-05-10T21:20:10.161Z,16.26
2023-05-10T21:22:47.516Z,16.31
2023-05-10T21:25:42.371Z,16.20
2023-05-10T21:28:18.752Z,16.30
2023-05-10T21:31:08.786Z,16.01
2023-05-10T21:33:41.918Z,15.98
2023-05-10T21:36:10.075Z,15.82
2023-05-10T21:38:38.126Z,15.64
2023-05-10T21:41:09.697Z,15.57
2023-05-10T21:43:37.832Z,15.59
2023-05-10T21:46:07.160Z,15.50
2023-05-10T21:48:35.268Z,15.44
2023-05-10T21:51:03.559Z,15.38
2023-05-10T21:53:31.690Z,15.34
2023-05-10T21:55:59.561Z,15.30
2023-05-10T21:58:29.939Z,15.27
2023-05-10T22:00:57.968Z,15.21
2023-05-10T22:03:26.425Z,15.18
2023-05-10T22:05:54.385Z,15.20
2023-05-10T22:08:22.356Z,15.23
2023-05-10T22:10:50.328Z,15.26
2023-05-10T22:13:18.293Z,15.28
2023-05-10T22:15:47.687Z,15.27
2023-05-10T22:18:15.607Z,15.20
2023-05-10T22:20:46.372Z,15.17
2023-05-10T22:23:14.450Z,15.16
2023-05-10T22:25:42.595Z,15.12
2023-05-10T22:28:11.445Z,15.03
2023-05-10T22:30:39.404Z,14.88
2023-05-10T22:33:08.724Z,14.80
2023-05-10T22:35:36.825Z,14.72
2023-05-10T22:38:04.965Z,14.71
2023-05-10T22:40:33.029Z,14.63
2023-05-10T22:43:03.652Z,14.56
2023-05-10T22:45:32.443Z,14.57
2023-05-10T22:48:05.051Z,14.49
2023-05-10T22:50:36.768Z,14.46
2023-05-10T22:53:04.966Z,14.43
2023-05-10T22:55:33.030Z,14.41
2023-05-10T22:58:01.030Z,14.40
2023-05-10T23:00:28.917Z,14.42
2023-05-10T23:02:57.440Z,14.42
2023-05-10T23:05:25.358Z,14.35
2023-05-10T23:07:55.631Z,14.31
2023-05-10T23:10:23.767Z,14.24
2023-05-10T23:12:51.669Z,14.26
2023-05-10T23:15:19.747Z,14.16
2023-05-10T23:17:47.699Z,14.16
2023-05-10T23:20:16.168Z,14.08
2023-05-10T23:22:44.864Z,14.08
2023-05-10T23:25:14.555Z,14.01
2023-05-10T23:27:42.608Z,13.98
2023-05-10T23:30:11.504Z,13.94
2023-05-10T23:32:39.552Z,13.92
2023-05-10T23:35:08.857Z,14.09
2023-05-10T23:37:37.783Z,13.96
2023-05-10T23:40:06.673Z,13.86
2023-05-10T23:42:36.679Z,14.00
2023-05-10T23:45:05.167Z,13.96
2023-05-10T23:47:33.125Z,13.85
2023-05-10T23:50:01.426Z,13.79
2023-05-10T23:52:29.382Z,13.80
2023-05-10T23:54:57.418Z,13.95
2023-05-10T23:57:25.705Z,13.82
2023-05-10T23:59:55.322Z,13.70
